Vass, North Carolina
Current Conditions -  °F | °C
As of 1:35 AM on Saturday 29 Nov 2014 (Local Time) from KSOP Reporting Station
Clear Clear  
Wind Chill: -5°   Ceiling: Unl
Heat Index: -5°   Visibility: 10mi
Dew Point: -31°   Wind: 0mph
Humidity: 12%   Direction: NA
Pressure: 30.29"   Gusts: NA
Location:  35.26°N, 79.28°W
Report Text: KSOP 290635Z AUTO 00000KT 10SM CLR M05/M31 A3029 RMK AO1
Loading
Personal Weather Stations






























Interactive Weather Map New forecast layout! Learn more

10-Day Weather Forecast

Advertisements
Track Severe Weather on mobile